createdAt,value
2023-12-27T00:01:56.458Z,2.50
2023-12-27T00:04:24.197Z,2.60
2023-12-27T00:06:53.441Z,2.63
2023-12-27T00:09:22.716Z,2.50
2023-12-27T00:11:59.736Z,2.67
2023-12-27T00:14:27.395Z,3.37
2023-12-27T00:16:55.084Z,2.77
2023-12-27T00:19:22.880Z,2.63
2023-12-27T00:21:50.630Z,2.97
2023-12-27T00:24:20.951Z,3.20
2023-12-27T00:26:50.084Z,2.77
2023-12-27T00:29:20.655Z,2.80
2023-12-27T00:31:50.205Z,2.47
2023-12-27T00:34:18.485Z,2.27
2023-12-27T00:36:46.214Z,2.67
2023-12-27T00:39:14.058Z,2.80
2023-12-27T00:41:44.042Z,2.77
2023-12-27T00:44:14.400Z,2.83
2023-12-27T00:46:45.684Z,2.60
2023-12-27T00:49:20.988Z,2.63
2023-12-27T00:51:51.709Z,3.30
2023-12-27T00:54:20.286Z,2.40
2023-12-27T00:56:49.581Z,2.53
2023-12-27T00:59:18.645Z,2.70
2023-12-27T01:01:46.357Z,3.23
2023-12-27T01:04:16.602Z,2.90
2023-12-27T01:06:44.522Z,2.43
2023-12-27T01:09:12.220Z,2.90
2023-12-27T01:11:39.932Z,3.17
2023-12-27T01:14:07.829Z,2.83
2023-12-27T01:16:36.937Z,3.03
2023-12-27T01:19:06.522Z,3.47
2023-12-27T01:21:34.596Z,2.73
2023-12-27T01:24:02.401Z,2.20
2023-12-27T01:26:30.047Z,2.80
2023-12-27T01:28:57.879Z,2.70
2023-12-27T01:31:25.531Z,3.20
2023-12-27T01:33:58.850Z,3.97
2023-12-27T01:36:32.503Z,2.43
2023-12-27T01:39:03.581Z,3.47
2023-12-27T01:41:33.596Z,3.00
2023-12-27T01:44:03.478Z,2.77
2023-12-27T01:46:31.858Z,3.33
2023-12-27T01:49:01.274Z,3.03
2023-12-27T01:51:29.196Z,2.93
2023-12-27T01:53:57.773Z,2.97
2023-12-27T01:56:26.811Z,3.60
2023-12-27T01:58:57.143Z,3.10
2023-12-27T02:01:24.880Z,4.17
2023-12-27T02:03:52.655Z,4.33
2023-12-27T02:06:24.247Z,4.47
2023-12-27T02:08:55.125Z,4.83
2023-12-27T02:11:22.768Z,4.37
2023-12-27T02:13:53.540Z,3.53
2023-12-27T02:16:22.613Z,4.20
2023-12-27T02:18:50.785Z,3.60
2023-12-27T02:21:19.198Z,3.73
2023-12-27T02:23:50.905Z,3.60
2023-12-27T02:26:22.699Z,3.60
2023-12-27T02:28:50.324Z,3.73
2023-12-27T02:31:20.956Z,3.63
2023-12-27T02:33:51.581Z,3.50
2023-12-27T02:36:19.420Z,3.90
2023-12-27T02:38:47.319Z,4.93
2023-12-27T02:41:15.419Z,4.30
2023-12-27T02:43:44.494Z,4.40
2023-12-27T02:46:15.142Z,3.93
2023-12-27T02:48:42.995Z,3.50
2023-12-27T02:51:10.737Z,3.70
2023-12-27T02:53:40.121Z,3.67
2023-12-27T02:56:08.790Z,3.67
2023-12-27T02:58:36.740Z,4.73
2023-12-27T03:01:06.281Z,4.00
2023-12-27T03:03:34.077Z,3.87
2023-12-27T03:06:01.922Z,3.87
2023-12-27T03:08:29.814Z,3.70
2023-12-27T03:10:57.937Z,3.77
2023-12-27T03:13:25.631Z,4.13
2023-12-27T03:15:53.285Z,3.70
2023-12-27T03:18:22.472Z,3.90
2023-12-27T03:20:50.160Z,3.93
2023-12-27T03:23:18.166Z,3.73
2023-12-27T03:25:46.001Z,4.60
2023-12-27T03:28:13.772Z,3.60
2023-12-27T03:30:41.539Z,4.20
2023-12-27T03:33:09.341Z,4.00
2023-12-27T03:35:38.682Z,4.73
2023-12-27T03:38:07.112Z,3.60
2023-12-27T03:40:34.889Z,3.60
2023-12-27T03:43:02.499Z,4.57
2023-12-27T03:45:30.351Z,3.97
2023-12-27T03:47:58.474Z,4.00
2023-12-27T03:50:26.392Z,3.87
2023-12-27T03:52:55.435Z,3.83
2023-12-27T03:55:25.442Z,3.87
2023-12-27T03:57:53.440Z,4.10
2023-12-27T04:00:21.645Z,4.20
2023-12-27T04:02:49.772Z,4.13
2023-12-27T04:05:17.605Z,4.80
2023-12-27T04:07:45.488Z,3.93
2023-12-27T04:10:14.733Z,4.50
2023-12-27T04:12:42.383Z,4.73
2023-12-27T04:15:10.891Z,5.07
2023-12-27T04:17:38.976Z,4.70
2023-12-27T04:20:07.560Z,4.87
2023-12-27T04:22:35.281Z,4.87
2023-12-27T04:25:04.200Z,5.37
2023-12-27T04:27:33.575Z,5.40
2023-12-27T04:30:01.500Z,4.40
2023-12-27T04:32:29.327Z,4.43
2023-12-27T04:34:57.002Z,4.23
2023-12-27T04:37:24.646Z,4.17
2023-12-27T04:39:52.258Z,4.00
2023-12-27T04:42:19.931Z,4.50
2023-12-27T04:44:49.155Z,4.33
2023-12-27T04:47:16.749Z,4.83
2023-12-27T04:49:44.540Z,6.03
2023-12-27T04:52:12.360Z,5.77
2023-12-27T04:54:40.265Z,5.77
2023-12-27T04:57:07.952Z,4.73
2023-12-27T04:59:35.634Z,4.80
2023-12-27T05:02:04.731Z,4.43
2023-12-27T05:04:32.624Z,5.03
2023-12-27T05:07:00.433Z,4.77
2023-12-27T05:09:28.065Z,4.50
2023-12-27T05:11:55.894Z,5.83
2023-12-27T05:14:23.511Z,6.07
2023-12-27T05:16:52.053Z,6.63
2023-12-27T05:19:21.404Z,7.17
2023-12-27T05:21:49.192Z,8.53
2023-12-27T05:24:17.015Z,9.57
2023-12-27T05:26:44.622Z,9.20
2023-12-27T05:29:12.671Z,4.97
2023-12-27T05:31:40.477Z,9.40
2023-12-27T05:34:08.436Z,9.20
2023-12-27T05:36:37.945Z,10.23
2023-12-27T05:39:06.105Z,10.97
2023-12-27T05:41:33.807Z,12.33
2023-12-27T05:44:02.504Z,12.37
2023-12-27T05:46:30.236Z,12.37
2023-12-27T05:48:58.408Z,13.20
2023-12-27T05:51:26.136Z,12.87
2023-12-27T05:53:55.263Z,14.47
2023-12-27T05:56:23.031Z,15.27
2023-12-27T05:58:51.295Z,14.07
2023-12-27T06:01:20.226Z,14.90
2023-12-27T06:03:48.055Z,15.57
2023-12-27T06:06:15.803Z,15.43
2023-12-27T06:08:43.448Z,13.77
2023-12-27T06:11:14.152Z,13.10
2023-12-27T06:13:41.840Z,13.37
2023-12-27T06:16:11.746Z,12.53
2023-12-27T06:18:39.868Z,0.80
2023-12-27T06:21:07.771Z,0.80
2023-12-27T06:23:35.548Z,0.90
2023-12-27T06:26:03.258Z,0.90
2023-12-27T06:28:32.262Z,0.70
2023-12-27T06:31:00.407Z,0.80
2023-12-27T06:33:28.361Z,0.80
2023-12-27T06:35:56.167Z,0.90
2023-12-27T06:38:23.890Z,0.90
2023-12-27T06:40:51.612Z,0.90
2023-12-27T06:43:20.632Z,0.80
2023-12-27T06:45:50.257Z,0.80
2023-12-27T06:48:18.134Z,0.90
2023-12-27T06:50:45.972Z,0.80
2023-12-27T06:53:13.702Z,0.80
2023-12-27T06:55:41.411Z,0.80
2023-12-27T06:58:09.247Z,6.37
2023-12-27T07:00:39.743Z,14.33
2023-12-27T07:03:09.134Z,12.10
2023-12-27T07:05:38.051Z,12.60
2023-12-27T07:08:06.047Z,14.60
2023-12-27T07:10:34.033Z,12.83
2023-12-27T07:13:02.719Z,12.83
2023-12-27T07:15:30.905Z,12.47
2023-12-27T07:17:58.928Z,12.97
2023-12-27T07:20:30.565Z,11.33
2023-12-27T07:22:58.550Z,12.13
2023-12-27T07:25:26.529Z,13.33
2023-12-27T07:27:54.288Z,12.43
2023-12-27T07:30:22.292Z,13.63
2023-12-27T07:32:50.376Z,14.50
2023-12-27T07:35:18.781Z,14.87
2023-12-27T07:37:47.999Z,14.03
2023-12-27T07:40:16.909Z,14.80
2023-12-27T07:42:45.561Z,13.77
2023-12-27T07:45:13.414Z,13.80
2023-12-27T07:47:41.284Z,30.13
2023-12-27T07:50:09.583Z,15.80
2023-12-27T07:52:37.270Z,24.20
2023-12-27T07:55:07.062Z,22.40
2023-12-27T07:57:34.816Z,21.23
2023-12-27T08:00:02.974Z,13.40
2023-12-27T08:02:31.790Z,19.63
2023-12-27T08:04:59.622Z,16.70
2023-12-27T08:07:27.262Z,19.67
2023-12-27T08:09:54.926Z,17.67
2023-12-27T08:12:23.941Z,18.07
2023-12-27T08:14:51.629Z,15.37
2023-12-27T08:17:19.375Z,20.97
2023-12-27T08:19:47.465Z,13.10
2023-12-27T08:22:15.339Z,17.90
2023-12-27T08:24:43.157Z,16.20
2023-12-27T08:27:10.982Z,25.23
2023-12-27T08:29:40.985Z,18.20
2023-12-27T08:32:09.144Z,33.57
2023-12-27T08:34:36.923Z,16.87
2023-12-27T08:37:04.953Z,22.53
2023-12-27T08:39:32.914Z,40.40
2023-12-27T08:42:02.403Z,27.57
2023-12-27T08:44:30.076Z,36.27
2023-12-27T08:46:59.216Z,13.87
2023-12-27T08:49:27.171Z,16.57
2023-12-27T08:51:54.887Z,13.97
2023-12-27T08:54:22.655Z,24.40
2023-12-27T08:56:50.364Z,27.03
2023-12-27T08:59:18.056Z,19.73
2023-12-27T09:01:45.844Z,25.70
2023-12-27T09:04:14.906Z,12.17
2023-12-27T09:06:42.598Z,18.20
2023-12-27T09:09:13.216Z,18.83
2023-12-27T09:11:42.617Z,24.30
2023-12-27T09:14:11.568Z,19.13
2023-12-27T09:16:39.504Z,11.77
2023-12-27T09:19:07.476Z,16.60
2023-12-27T09:21:44.209Z,15.77
2023-12-27T09:24:12.237Z,9.27
2023-12-27T09:26:40.033Z,11.37
2023-12-27T09:29:10.316Z,13.87
2023-12-27T09:31:38.821Z,13.07
2023-12-27T09:34:07.099Z,13.53
2023-12-27T09:36:36.802Z,11.07
2023-12-27T09:39:05.003Z,10.80
2023-12-27T09:41:33.082Z,8.70
2023-12-27T09:44:01.350Z,10.83
2023-12-27T09:46:30.465Z,12.40
2023-12-27T09:48:58.251Z,20.70
2023-12-27T09:51:27.420Z,21.87
2023-12-27T09:53:56.804Z,21.37
2023-12-27T09:56:24.905Z,20.57
2023-12-27T09:58:58.061Z,34.27
2023-12-27T10:01:26.235Z,27.43
2023-12-27T10:03:56.981Z,33.93
2023-12-27T10:06:29.198Z,38.13
2023-12-27T10:08:58.801Z,29.40
2023-12-27T10:11:26.853Z,28.67
2023-12-27T10:13:54.556Z,30.87
2023-12-27T10:16:22.221Z,36.17
2023-12-27T10:18:50.014Z,47.27
2023-12-27T10:21:20.053Z,33.83
2023-12-27T10:23:47.874Z,34.17
2023-12-27T10:26:17.031Z,40.70
2023-12-27T10:28:45.738Z,28.97
2023-12-27T10:31:13.550Z,41.30
2023-12-27T10:33:46.611Z,24.23
2023-12-27T10:36:14.469Z,41.87
2023-12-27T10:38:42.191Z,65.07
2023-12-27T10:41:13.191Z,52.10
2023-12-27T10:43:43.775Z,41.63
2023-12-27T10:46:13.139Z,42.53
2023-12-27T10:48:42.179Z,30.10
2023-12-27T10:51:10.554Z,28.27
2023-12-27T10:53:38.370Z,23.83
2023-12-27T10:56:06.966Z,17.17
2023-12-27T10:58:36.756Z,11.47
2023-12-27T11:01:06.652Z,9.87
2023-12-27T11:03:34.782Z,9.50
2023-12-27T11:06:03.300Z,8.23
2023-12-27T11:08:34.404Z,7.23
2023-12-27T11:11:03.495Z,7.60
2023-12-27T11:13:32.338Z,7.23
2023-12-27T11:16:00.970Z,7.93
2023-12-27T11:18:32.785Z,6.70
2023-12-27T11:21:01.411Z,7.30
2023-12-27T11:23:29.588Z,8.00
2023-12-27T11:25:57.545Z,8.03
2023-12-27T11:28:30.688Z,7.33
2023-12-27T11:31:00.592Z,7.80
2023-12-27T11:33:32.573Z,7.27
2023-12-27T11:36:05.070Z,8.00
2023-12-27T11:38:33.781Z,7.60
2023-12-27T11:41:02.946Z,7.03
2023-12-27T11:43:52.773Z,7.23
2023-12-27T11:46:28.819Z,7.70
2023-12-27T11:48:59.957Z,8.50
2023-12-27T11:51:33.450Z,7.97
2023-12-27T11:54:04.060Z,7.40
2023-12-27T11:56:35.349Z,8.13
2023-12-27T11:59:07.406Z,7.53
2023-12-27T12:01:37.370Z,7.43
2023-12-27T12:04:41.061Z,7.63
2023-12-27T12:07:22.297Z,7.07
2023-12-27T12:09:50.262Z,7.33
2023-12-27T12:12:19.277Z,7.00
2023-12-27T12:14:47.251Z,5.87
2023-12-27T12:17:15.454Z,6.43
2023-12-27T12:19:43.571Z,5.53
2023-12-27T12:22:14.708Z,6.47
2023-12-27T12:24:42.550Z,5.67
2023-12-27T12:27:11.401Z,5.77
2023-12-27T12:29:39.163Z,6.03
2023-12-27T12:32:07.857Z,6.20
2023-12-27T12:34:35.722Z,5.57
2023-12-27T12:37:03.381Z,45.73
2023-12-27T12:39:32.630Z,16.33
2023-12-27T12:42:01.111Z,5.93
2023-12-27T12:44:30.563Z,5.37
2023-12-27T12:46:58.743Z,5.47
2023-12-27T12:49:27.084Z,5.43
2023-12-27T12:51:59.365Z,5.80
2023-12-27T12:54:29.123Z,5.37
2023-12-27T12:57:01.294Z,5.67
2023-12-27T12:59:30.839Z,5.47
2023-12-27T13:01:58.642Z,5.80
2023-12-27T13:04:26.701Z,5.87
2023-12-27T13:07:00.970Z,6.13
2023-12-27T13:09:28.965Z,5.67
2023-12-27T13:11:56.723Z,5.27
2023-12-27T13:14:26.106Z,4.90
2023-12-27T13:16:53.824Z,5.10
2023-12-27T13:19:24.959Z,5.60
2023-12-27T13:21:52.953Z,5.93
2023-12-27T13:24:20.774Z,5.30
2023-12-27T13:26:48.437Z,5.27
2023-12-27T13:29:16.463Z,5.50
2023-12-27T13:31:45.694Z,5.73
2023-12-27T13:34:13.668Z,5.50
2023-12-27T13:36:42.069Z,4.60
2023-12-27T13:39:10.633Z,5.17
2023-12-27T13:41:37.534Z,5.20
2023-12-27T13:44:05.564Z,5.00
2023-12-27T13:46:34.220Z,5.03
2023-12-27T13:49:04.055Z,6.17
2023-12-27T13:51:31.955Z,5.60
2023-12-27T13:54:05.901Z,6.07
2023-12-27T13:56:40.083Z,5.67
2023-12-27T13:59:07.812Z,5.27
2023-12-27T14:01:40.874Z,4.33
2023-12-27T14:04:10.170Z,3.93
2023-12-27T14:06:38.610Z,3.93
2023-12-27T14:09:09.125Z,4.90
2023-12-27T14:11:37.014Z,4.83
2023-12-27T14:14:06.068Z,5.13
2023-12-27T14:16:34.022Z,16.13
2023-12-27T14:19:02.217Z,5.10
2023-12-27T14:21:31.458Z,3.83
2023-12-27T14:23:59.257Z,4.60
2023-12-27T14:26:27.077Z,3.97
2023-12-27T14:28:56.573Z,4.23
2023-12-27T14:31:27.543Z,4.73
2023-12-27T14:33:55.733Z,4.10
2023-12-27T14:36:23.532Z,3.97
2023-12-27T14:38:53.258Z,5.20
2023-12-27T14:41:21.990Z,4.20
2023-12-27T14:43:49.697Z,3.90
2023-12-27T14:46:17.654Z,4.40
2023-12-27T14:48:47.276Z,3.97
2023-12-27T14:51:16.632Z,4.07
2023-12-27T14:53:44.828Z,4.50
2023-12-27T14:56:13.892Z,4.20
2023-12-27T14:58:41.610Z,4.23
2023-12-27T15:01:09.709Z,4.50
2023-12-27T15:03:38.146Z,3.73
2023-12-27T15:06:06.596Z,4.80
2023-12-27T15:08:34.288Z,4.20
2023-12-27T15:11:02.012Z,4.90
2023-12-27T15:13:31.375Z,4.17
2023-12-27T15:15:59.881Z,4.27
2023-12-27T15:18:31.628Z,4.30
2023-12-27T15:20:59.537Z,4.00
2023-12-27T15:23:28.327Z,4.13
2023-12-27T15:25:56.128Z,14.50
2023-12-27T15:28:26.032Z,3.90
2023-12-27T15:30:55.490Z,3.63
2023-12-27T15:33:23.869Z,3.17
2023-12-27T15:35:51.644Z,3.77
2023-12-27T15:38:19.470Z,3.40
2023-12-27T15:40:47.280Z,4.10
2023-12-27T15:43:14.991Z,4.43
2023-12-27T15:45:42.824Z,3.63
2023-12-27T15:48:16.148Z,3.93
2023-12-27T15:50:44.134Z,3.73
2023-12-27T15:53:13.924Z,3.80
2023-12-27T15:55:41.692Z,4.40
2023-12-27T15:58:09.502Z,3.83
2023-12-27T16:00:37.604Z,4.07
2023-12-27T16:03:07.048Z,4.03
2023-12-27T16:05:36.645Z,4.60
2023-12-27T16:08:06.041Z,4.50
2023-12-27T16:10:33.627Z,4.03
2023-12-27T16:13:01.284Z,5.53
2023-12-27T16:15:31.474Z,5.60
2023-12-27T16:18:01.515Z,4.37
2023-12-27T16:20:29.659Z,5.07
2023-12-27T16:22:59.106Z,5.80
2023-12-27T16:25:27.103Z,4.03
2023-12-27T16:27:59.374Z,4.70
2023-12-27T16:30:27.204Z,5.33
2023-12-27T16:32:55.194Z,4.70
2023-12-27T16:35:24.500Z,5.20
2023-12-27T16:37:52.566Z,4.97
2023-12-27T16:40:21.656Z,5.40
2023-12-27T16:42:50.656Z,7.13
2023-12-27T16:45:24.836Z,5.93
2023-12-27T16:47:58.818Z,5.70
2023-12-27T16:50:27.408Z,5.10
2023-12-27T16:52:56.435Z,4.50
2023-12-27T16:55:27.297Z,4.63
2023-12-27T16:57:55.964Z,4.33
2023-12-27T17:00:23.674Z,4.90
2023-12-27T17:02:51.574Z,4.47
2023-12-27T17:05:19.249Z,5.00
2023-12-27T17:07:46.971Z,5.50
2023-12-27T17:10:14.701Z,6.00
2023-12-27T17:12:45.201Z,4.73
2023-12-27T17:15:13.858Z,4.97
2023-12-27T17:17:41.896Z,5.30
2023-12-27T17:20:10.697Z,5.13
2023-12-27T17:22:38.388Z,4.97
2023-12-27T17:25:09.302Z,5.77
2023-12-27T17:27:37.085Z,5.60
2023-12-27T17:30:08.336Z,5.00
2023-12-27T17:32:37.414Z,4.90
2023-12-27T17:35:07.045Z,4.90
2023-12-27T17:37:35.730Z,5.57
2023-12-27T17:40:05.993Z,5.00
2023-12-27T17:42:34.055Z,5.57
2023-12-27T17:45:02.022Z,6.03
2023-12-27T17:47:31.575Z,4.80
2023-12-27T17:49:59.940Z,5.20
2023-12-27T17:52:29.413Z,5.70
2023-12-27T17:54:57.655Z,6.03
2023-12-27T17:57:25.754Z,5.47
2023-12-27T17:59:55.353Z,4.83
2023-12-27T18:02:23.174Z,5.73
2023-12-27T18:04:52.886Z,5.73
2023-12-27T18:07:20.580Z,5.53
2023-12-27T18:09:48.932Z,5.60
2023-12-27T18:12:16.852Z,5.50
2023-12-27T18:14:47.426Z,4.90
2023-12-27T18:17:15.450Z,5.10
2023-12-27T18:19:44.060Z,5.30
2023-12-27T18:22:13.727Z,6.30
2023-12-27T18:24:52.534Z,5.80
2023-12-27T18:27:20.381Z,5.67
2023-12-27T18:29:48.219Z,5.30
2023-12-27T18:32:15.881Z,5.73
2023-12-27T18:34:43.688Z,5.67
2023-12-27T18:37:12.896Z,6.03
2023-12-27T18:39:41.369Z,5.73
2023-12-27T18:42:09.255Z,5.50
2023-12-27T18:44:37.012Z,6.33
2023-12-27T18:47:05.216Z,5.20
2023-12-27T18:49:33.050Z,6.87
2023-12-27T18:52:00.893Z,6.00
2023-12-27T18:54:30.050Z,6.30
2023-12-27T18:56:57.789Z,6.50
2023-12-27T18:59:25.648Z,5.87
2023-12-27T19:01:53.479Z,6.17
2023-12-27T19:04:21.354Z,7.00
2023-12-27T19:06:49.048Z,6.23
2023-12-27T19:09:16.859Z,6.43
2023-12-27T19:11:46.141Z,6.20
2023-12-27T19:14:13.914Z,6.10
2023-12-27T19:16:41.549Z,6.30
2023-12-27T19:19:10.616Z,6.07
2023-12-27T19:21:41.206Z,6.50
2023-12-27T19:24:09.858Z,5.60
2023-12-27T19:26:38.429Z,6.17
2023-12-27T19:29:19.113Z,5.83
2023-12-27T19:31:50.724Z,5.53
2023-12-27T19:34:20.288Z,6.13
2023-12-27T19:39:43.049Z,5.77
2023-12-27T19:42:19.536Z,5.87
2023-12-27T19:44:53.373Z,6.40
2023-12-27T19:50:08.612Z,6.40
2023-12-27T19:52:36.883Z,6.17
2023-12-27T19:55:13.759Z,5.77
2023-12-27T19:57:44.843Z,6.70
2023-12-27T20:00:25.974Z,7.73
2023-12-27T20:02:55.359Z,7.30
2023-12-27T20:05:23.774Z,6.87
2023-12-27T20:08:13.229Z,7.50
2023-12-27T20:10:55.594Z,8.00
2023-12-27T20:13:23.283Z,10.13
2023-12-27T20:15:54.376Z,6.03
2023-12-27T20:18:24.187Z,6.10
2023-12-27T20:20:52.808Z,7.50
2023-12-27T20:23:22.044Z,8.40
2023-12-27T20:25:50.386Z,5.67
2023-12-27T20:28:18.166Z,6.13
2023-12-27T20:30:47.407Z,5.80
2023-12-27T20:33:17.002Z,10.30
2023-12-27T20:35:44.945Z,10.70
2023-12-27T20:38:12.716Z,7.80
2023-12-27T20:40:40.384Z,12.90
2023-12-27T20:43:09.135Z,7.50
2023-12-27T20:45:36.823Z,6.00
2023-12-27T20:48:05.258Z,8.93
2023-12-27T20:50:34.580Z,6.70
2023-12-27T20:53:02.254Z,9.57
2023-12-27T20:55:29.935Z,7.67
2023-12-27T20:57:58.041Z,12.10
2023-12-27T21:00:26.208Z,8.00
2023-12-27T21:02:53.994Z,11.50
2023-12-27T21:05:21.764Z,5.43
2023-12-27T21:07:50.956Z,5.90
2023-12-27T21:10:18.598Z,7.43
2023-12-27T21:12:46.269Z,6.00
2023-12-27T21:15:14.158Z,6.50
2023-12-27T21:17:42.625Z,7.50
2023-12-27T21:20:11.776Z,6.53
2023-12-27T21:22:39.535Z,6.10
2023-12-27T21:25:10.076Z,6.23
2023-12-27T21:27:37.802Z,6.47
2023-12-27T21:30:05.492Z,6.57
2023-12-27T21:32:33.224Z,6.53
2023-12-27T21:35:01.308Z,6.57
2023-12-27T21:37:29.082Z,7.07
2023-12-27T21:39:56.946Z,6.83
2023-12-27T21:42:26.021Z,17.60
2023-12-27T21:44:53.830Z,7.20
2023-12-27T21:47:21.463Z,7.33
2023-12-27T21:49:49.223Z,6.70
2023-12-27T21:52:17.083Z,6.77
2023-12-27T21:54:44.892Z,5.77
2023-12-27T21:57:12.635Z,7.10
2023-12-27T21:59:41.680Z,5.57
2023-12-27T22:02:09.411Z,5.53
2023-12-27T22:04:37.102Z,5.33
2023-12-27T22:07:07.502Z,5.03
2023-12-27T22:09:36.764Z,5.00
2023-12-27T22:12:05.743Z,4.50
2023-12-27T22:14:33.384Z,5.37
2023-12-27T22:17:02.378Z,4.80
2023-12-27T22:19:30.041Z,4.47
2023-12-27T22:21:57.831Z,4.80
2023-12-27T22:24:25.564Z,4.27
2023-12-27T22:26:53.262Z,3.57
2023-12-27T22:29:20.992Z,4.40
2023-12-27T22:31:49.029Z,4.03
2023-12-27T22:34:18.180Z,3.60
2023-12-27T22:36:45.910Z,3.17
2023-12-27T22:39:13.658Z,3.40
2023-12-27T22:41:41.267Z,3.70
2023-12-27T22:44:08.898Z,4.10
2023-12-27T22:46:36.614Z,3.97
2023-12-27T22:49:04.310Z,4.00
2023-12-27T22:51:33.345Z,4.67
2023-12-27T22:54:00.970Z,4.10
2023-12-27T22:56:28.630Z,4.20
2023-12-27T22:58:56.414Z,3.97
2023-12-27T23:01:24.106Z,4.07
2023-12-27T23:03:51.789Z,4.23
2023-12-27T23:06:19.515Z,3.90
2023-12-27T23:08:49.568Z,4.40
2023-12-27T23:11:17.301Z,4.40
2023-12-27T23:13:45.103Z,4.27
2023-12-27T23:16:12.856Z,5.03
2023-12-27T23:18:40.792Z,4.90
2023-12-27T23:21:08.865Z,4.53
2023-12-27T23:23:37.505Z,5.40
2023-12-27T23:26:09.103Z,4.70
2023-12-27T23:28:36.899Z,4.90
2023-12-27T23:31:07.758Z,4.60
2023-12-27T23:33:36.099Z,4.97
2023-12-27T23:36:04.810Z,5.10
2023-12-27T23:38:32.488Z,5.10
2023-12-27T23:41:01.677Z,4.53
2023-12-27T23:43:31.205Z,4.47
2023-12-27T23:45:59.967Z,4.30
2023-12-27T23:48:27.951Z,4.13
2023-12-27T23:51:00.165Z,4.43
2023-12-27T23:53:28.089Z,4.50
2023-12-27T23:55:56.561Z,4.60
2023-12-27T23:58:25.031Z,4.30
